createdAt,value
2023-03-28T00:01:44.520Z,0.20
2023-03-28T00:04:11.646Z,0.13
2023-03-28T00:06:49.470Z,0.10
2023-03-28T00:09:23.680Z,0.12
2023-03-28T00:11:50.281Z,0.14
2023-03-28T00:14:28.375Z,0.14
2023-03-28T00:16:56.407Z,0.08
2023-03-28T00:19:28.370Z,0.01
2023-03-28T00:22:17.444Z,-0.06
2023-03-28T00:25:07.945Z,-0.11
2023-03-28T00:27:50.210Z,-0.19
2023-03-28T00:30:26.929Z,-0.22
2023-03-28T00:33:02.660Z,-0.22
2023-03-28T00:35:37.980Z,-0.24
2023-03-28T00:38:09.428Z,-0.23
2023-03-28T00:40:38.730Z,-0.17
2023-03-28T00:43:07.107Z,-0.23
2023-03-28T00:45:33.907Z,-0.21
2023-03-28T00:48:16.755Z,-0.23
2023-03-28T00:50:48.721Z,-0.21
2023-03-28T00:53:26.402Z,-0.23
2023-03-28T00:55:58.979Z,-0.19
2023-03-28T00:58:29.612Z,-0.25
2023-03-28T01:00:57.543Z,-0.26
2023-03-28T01:03:33.828Z,-0.30
2023-03-28T01:06:06.179Z,-0.33
2023-03-28T01:08:38.551Z,-0.37
2023-03-28T01:11:25.668Z,-0.43
2023-03-28T01:14:33.880Z,-0.48
2023-03-28T01:45:22.955Z,-0.87
2023-03-28T01:48:05.161Z,-0.87
2023-03-28T01:50:59.522Z,-0.89
2023-03-28T01:53:50.473Z,-0.86
2023-03-28T02:03:35.674Z,-0.71
2023-03-28T02:06:10.688Z,-0.71
2023-03-28T02:08:56.056Z,-0.68
2023-03-28T02:11:28.754Z,-0.74
2023-03-28T02:14:08.867Z,-0.79
2023-03-28T02:16:44.355Z,-0.85
2023-03-28T02:19:24.406Z,-0.84
2023-03-28T02:22:04.619Z,-0.83
2023-03-28T02:24:39.092Z,-0.92
2023-03-28T02:27:08.482Z,-1.02
2023-03-28T02:29:57.803Z,-1.03
2023-03-28T02:32:26.564Z,-1.09
2023-03-28T02:34:59.387Z,-1.09
2023-03-28T02:37:55.008Z,-1.09
2023-03-28T02:40:41.104Z,-1.16
2023-03-28T02:43:45.079Z,-1.17
2023-03-28T02:46:21.533Z,-1.15
2023-03-28T02:48:57.095Z,-1.19
2023-03-28T02:51:40.437Z,-1.19
2023-03-28T02:54:33.684Z,-1.18
2023-03-28T02:57:16.605Z,-1.21
2023-03-28T03:00:07.908Z,-1.19
2023-03-28T03:02:35.210Z,-1.22
2023-03-28T03:05:04.423Z,-1.20
2023-03-28T03:07:32.282Z,-1.18
2023-03-28T03:09:59.149Z,-1.15
2023-03-28T03:12:29.005Z,-1.16
2023-03-28T03:14:58.940Z,-1.12
2023-03-28T03:17:26.827Z,-1.12
2023-03-28T03:19:53.373Z,-1.10
2023-03-28T03:22:20.713Z,-1.07
2023-03-28T03:24:50.820Z,-1.04
2023-03-28T03:27:21.118Z,-1.00
2023-03-28T03:29:48.425Z,-1.01
2023-03-28T03:32:15.439Z,-1.01
2023-03-28T03:34:42.008Z,-0.99
2023-03-28T03:37:11.624Z,-0.94
2023-03-28T03:39:39.940Z,-0.91
2023-03-28T03:42:06.418Z,-0.93
2023-03-28T03:44:32.909Z,-0.89
2023-03-28T03:46:59.357Z,-0.85
2023-03-28T03:49:26.040Z,-0.85
2023-03-28T03:51:53.118Z,-0.84
2023-03-28T03:54:19.665Z,-0.76
2023-03-28T03:56:46.756Z,-0.79
2023-03-28T03:59:15.255Z,-0.75
2023-03-28T04:01:45.461Z,-0.76
2023-03-28T04:04:34.296Z,-0.76
2023-03-28T04:07:06.505Z,-0.72
2023-03-28T04:09:35.352Z,-0.75
2023-03-28T04:12:07.177Z,-0.76
2023-03-28T04:14:36.512Z,-0.83
2023-03-28T04:17:11.107Z,-0.88
2023-03-28T04:19:41.002Z,-0.88
2023-03-28T04:22:12.895Z,-0.81
2023-03-28T04:24:45.189Z,-0.88
2023-03-28T04:27:12.255Z,-0.85
2023-03-28T04:29:39.390Z,-0.86
2023-03-28T04:32:06.337Z,-0.87
2023-03-28T04:34:33.937Z,-0.93
2023-03-28T04:37:03.781Z,-0.94
2023-03-28T04:39:32.868Z,-0.91
2023-03-28T04:42:02.296Z,-0.89
2023-03-28T04:44:29.693Z,-1.01
2023-03-28T04:46:58.520Z,-0.93
2023-03-28T04:49:25.717Z,-0.94
2023-03-28T04:51:54.037Z,-0.91
2023-03-28T04:54:21.056Z,-0.91
2023-03-28T04:56:51.076Z,-0.91
2023-03-28T04:59:18.346Z,-0.88
2023-03-28T05:01:49.346Z,-0.83
2023-03-28T05:04:17.772Z,-0.78
2023-03-28T05:06:45.879Z,-0.78
2023-03-28T05:09:13.433Z,-0.76
2023-03-28T05:11:40.565Z,-0.74
2023-03-28T05:14:07.391Z,-0.65
2023-03-28T05:16:34.113Z,-0.55
2023-03-28T05:19:01.560Z,-0.53
2023-03-28T05:21:28.550Z,-0.52
2023-03-28T05:23:55.072Z,-0.53
2023-03-28T05:26:21.628Z,-0.46
2023-03-28T05:28:48.182Z,-0.37
2023-03-28T05:31:17.192Z,-0.31
2023-03-28T05:33:43.779Z,-0.24
2023-03-28T05:36:10.744Z,-0.14
2023-03-28T05:38:37.473Z,-0.10
2023-03-28T05:41:04.724Z,-0.03
2023-03-28T05:43:31.708Z,0.07
2023-03-28T05:45:58.267Z,0.10
2023-03-28T05:48:24.829Z,0.19
2023-03-28T05:50:51.465Z,0.27
2023-03-28T05:53:17.974Z,0.30
2023-03-28T05:55:44.515Z,0.46
2023-03-28T05:58:11.265Z,0.54
2023-03-28T06:00:38.453Z,0.59
2023-03-28T06:03:07.472Z,1.07
2023-03-28T06:05:34.566Z,1.56
2023-03-28T06:08:01.845Z,1.90
2023-03-28T06:10:28.438Z,2.02
2023-03-28T06:12:55.580Z,2.49
2023-03-28T06:15:22.921Z,2.87
2023-03-28T06:17:49.815Z,3.33
2023-03-28T06:20:18.879Z,3.71
2023-03-28T06:22:45.435Z,4.40
2023-03-28T06:25:13.393Z,5.13
2023-03-28T06:27:40.055Z,5.83
2023-03-28T06:30:08.654Z,6.38
2023-03-28T06:32:35.299Z,7.16
2023-03-28T06:35:02.012Z,7.30
2023-03-28T06:37:28.511Z,7.46
2023-03-28T06:39:55.004Z,7.08
2023-03-28T06:42:21.670Z,7.62
2023-03-28T06:44:48.198Z,8.15
2023-03-28T06:47:14.675Z,7.49
2023-03-28T06:49:43.605Z,7.93
2023-03-28T06:52:10.055Z,7.71
2023-03-28T06:54:36.548Z,7.41
2023-03-28T06:57:03.160Z,6.97
2023-03-28T06:59:29.768Z,6.47
2023-03-28T07:01:56.782Z,5.85
2023-03-28T07:04:23.233Z,5.42
2023-03-28T07:06:49.711Z,4.91
2023-03-28T07:09:16.444Z,4.50
2023-03-28T07:11:42.891Z,4.05
2023-03-28T07:14:09.361Z,3.72
2023-03-28T07:16:36.064Z,3.67
2023-03-28T07:19:02.567Z,3.35
2023-03-28T07:21:28.990Z,3.19
2023-03-28T07:23:55.536Z,3.24
2023-03-28T07:26:22.125Z,3.17
2023-03-28T07:28:49.441Z,3.13
2023-03-28T07:31:16.804Z,3.10
2023-03-28T07:33:43.275Z,3.11
2023-03-28T07:36:15.858Z,3.21
2023-03-28T07:38:42.553Z,3.28
2023-03-28T07:41:09.254Z,3.36
2023-03-28T07:43:36.309Z,3.45
2023-03-28T07:46:06.635Z,3.57
2023-03-28T07:48:35.067Z,3.62
2023-03-28T07:51:01.838Z,3.71
2023-03-28T07:53:28.925Z,3.85
2023-03-28T07:55:56.192Z,3.90
2023-03-28T07:58:23.064Z,3.86
2023-03-28T08:00:50.627Z,3.94
2023-03-28T08:03:18.708Z,3.94
2023-03-28T08:05:51.918Z,4.17
2023-03-28T08:08:20.286Z,4.25
2023-03-28T08:10:51.066Z,4.55
2023-03-28T08:13:18.602Z,4.63
2023-03-28T08:15:45.088Z,5.19
2023-03-28T08:18:13.063Z,5.66
2023-03-28T08:20:39.538Z,5.89
2023-03-28T08:23:07.391Z,6.08
2023-03-28T08:25:33.924Z,6.42
2023-03-28T08:28:00.469Z,6.76
2023-03-28T08:30:27.176Z,6.86
2023-03-28T08:32:53.674Z,6.84
2023-03-28T08:35:20.129Z,6.87
2023-03-28T08:37:46.861Z,6.65
2023-03-28T08:40:17.855Z,6.65
2023-03-28T08:43:04.692Z,6.41
2023-03-28T08:45:46.605Z,6.22
2023-03-28T08:48:27.065Z,6.24
2023-03-28T08:51:06.812Z,6.00
2023-03-28T08:53:43.637Z,5.78
2023-03-28T08:56:14.091Z,5.63
2023-03-28T08:59:05.626Z,5.24
2023-03-28T09:01:32.928Z,5.05
2023-03-28T09:04:00.808Z,5.02
2023-03-28T09:06:38.162Z,5.00
2023-03-28T09:09:35.466Z,5.03
2023-03-28T09:12:24.574Z,5.16
2023-03-28T09:15:22.977Z,5.17
2023-03-28T09:18:07.980Z,5.25
2023-03-28T09:20:49.274Z,5.34
2023-03-28T09:23:51.174Z,5.42
2023-03-28T09:26:23.582Z,5.58
2023-03-28T09:28:59.847Z,5.62
2023-03-28T09:31:33.267Z,5.71
2023-03-28T09:34:02.234Z,5.71
2023-03-28T09:36:41.240Z,5.53
2023-03-28T09:39:58.932Z,5.61
2023-03-28T09:42:35.754Z,5.52
2023-03-28T09:45:16.695Z,5.59
2023-03-28T09:47:47.537Z,5.75
2023-03-28T09:50:17.065Z,5.90
2023-03-28T09:52:45.233Z,6.07
2023-03-28T09:55:23.646Z,6.30
2023-03-28T09:57:59.473Z,6.63
2023-03-28T10:00:26.168Z,6.87
2023-03-28T10:02:53.850Z,7.06
2023-03-28T10:05:40.758Z,7.12
2023-03-28T10:08:35.129Z,7.30
2023-03-28T10:11:03.180Z,7.31
2023-03-28T10:13:40.281Z,7.23
2023-03-28T10:16:07.728Z,6.99
2023-03-28T10:18:34.762Z,7.04
2023-03-28T10:21:18.035Z,7.15
2023-03-28T10:23:50.588Z,7.20
2023-03-28T10:26:23.509Z,7.52
2023-03-28T10:28:54.082Z,7.59
2023-03-28T10:31:29.498Z,7.60
2023-03-28T10:33:59.144Z,7.44
2023-03-28T10:36:33.332Z,7.29
2023-03-28T10:39:13.070Z,7.30
2023-03-28T10:42:01.564Z,7.03
2023-03-28T10:44:29.287Z,6.95
2023-03-28T10:47:00.863Z,6.85
2023-03-28T10:49:30.640Z,6.75
2023-03-28T10:51:57.212Z,6.66
2023-03-28T10:54:46.737Z,6.57
2023-03-28T10:57:31.034Z,6.52
2023-03-28T11:00:12.770Z,6.46
2023-03-28T11:02:49.883Z,6.59
2023-03-28T11:05:38.397Z,6.57
2023-03-28T11:08:27.834Z,6.57
2023-03-28T11:11:39.204Z,6.77
2023-03-28T11:14:22.454Z,6.86
2023-03-28T11:17:07.213Z,7.10
2023-03-28T11:20:02.114Z,7.15
2023-03-28T11:23:05.642Z,7.26
2023-03-28T11:25:48.853Z,7.35
2023-03-28T11:28:53.148Z,7.32
2023-03-28T11:31:29.309Z,7.33
2023-03-28T11:33:58.697Z,7.44
2023-03-28T11:37:03.486Z,7.79
2023-03-28T11:39:42.681Z,8.03
2023-03-28T11:42:15.724Z,8.09
2023-03-28T11:44:48.013Z,7.93
2023-03-28T11:47:31.298Z,7.70
2023-03-28T11:50:08.142Z,7.86
2023-03-28T11:52:45.683Z,7.97
2023-03-28T11:55:28.035Z,8.02
2023-03-28T11:58:16.619Z,8.17
2023-03-28T12:00:52.391Z,8.16
2023-03-28T12:03:31.620Z,8.14
2023-03-28T12:06:12.495Z,7.86
2023-03-28T12:08:45.751Z,7.85
2023-03-28T12:11:21.434Z,7.54
2023-03-28T12:14:05.236Z,8.00
2023-03-28T12:16:43.879Z,8.07
2023-03-28T12:19:14.640Z,8.20
2023-03-28T12:21:57.071Z,8.39
2023-03-28T12:24:42.659Z,8.43
2023-03-28T12:27:43.884Z,8.79
2023-03-28T12:30:32.404Z,8.89
2023-03-28T12:33:24.120Z,8.83
2023-03-28T12:36:06.417Z,8.26
2023-03-28T12:38:55.975Z,8.32
2023-03-28T12:41:34.441Z,8.09
2023-03-28T12:44:08.254Z,7.94
2023-03-28T12:46:45.967Z,8.09
2023-03-28T12:49:19.649Z,8.10
2023-03-28T12:51:53.411Z,8.03
2023-03-28T12:54:38.093Z,8.06
2023-03-28T12:57:13.255Z,7.93
2023-03-28T12:59:49.107Z,8.01
2023-03-28T13:02:28.964Z,8.02
2023-03-28T13:05:15.351Z,8.03
2023-03-28T13:08:04.465Z,8.19
2023-03-28T13:11:17.559Z,8.29
2023-03-28T13:13:56.958Z,8.31
2023-03-28T13:16:42.659Z,8.30
2023-03-28T13:19:11.542Z,8.25
2023-03-28T13:21:54.985Z,8.13
2023-03-28T13:24:33.576Z,8.06
2023-03-28T13:27:30.600Z,7.97
2023-03-28T13:30:07.574Z,7.69
2023-03-28T13:32:38.305Z,7.67
2023-03-28T13:35:06.040Z,7.72
2023-03-28T13:37:44.425Z,7.90
2023-03-28T13:41:00.226Z,7.92
2023-03-28T13:43:47.289Z,7.68
2023-03-28T13:46:22.222Z,7.65
2023-03-28T13:49:07.477Z,7.58
2023-03-28T13:51:42.051Z,7.41
2023-03-28T13:54:10.958Z,7.59
2023-03-28T13:56:40.876Z,7.67
2023-03-28T13:59:14.021Z,7.67
2023-03-28T14:02:01.076Z,7.79
2023-03-28T14:04:34.880Z,7.93
2023-03-28T14:07:02.507Z,8.00
2023-03-28T14:09:28.982Z,7.74
2023-03-28T14:12:06.330Z,7.58
2023-03-28T14:14:34.478Z,7.65
2023-03-28T14:17:03.683Z,7.64
2023-03-28T14:19:43.461Z,7.86
2023-03-28T14:22:24.231Z,8.09
2023-03-28T14:24:52.675Z,8.26
2023-03-28T14:27:35.732Z,8.39
2023-03-28T14:30:16.116Z,8.43
2023-03-28T14:32:57.346Z,8.33
2023-03-28T14:35:25.343Z,8.29
2023-03-28T14:37:54.596Z,8.20
2023-03-28T14:40:23.800Z,7.88
2023-03-28T14:42:59.032Z,7.85
2023-03-28T14:45:27.389Z,7.88
2023-03-28T14:47:56.203Z,8.00
2023-03-28T14:50:24.323Z,7.94
2023-03-28T14:52:50.739Z,8.04
2023-03-28T14:55:21.003Z,7.99
2023-03-28T14:57:50.599Z,7.93
2023-03-28T15:00:22.364Z,7.81
2023-03-28T15:02:52.234Z,7.72
2023-03-28T15:05:22.095Z,7.79
2023-03-28T15:08:01.854Z,7.51
2023-03-28T15:10:28.850Z,7.60
2023-03-28T15:12:55.164Z,7.64
2023-03-28T15:15:28.869Z,7.61
2023-03-28T15:17:58.379Z,7.49
2023-03-28T15:20:32.034Z,7.46
2023-03-28T15:23:01.792Z,7.27
2023-03-28T15:25:29.941Z,7.31
2023-03-28T15:27:59.834Z,7.38
2023-03-28T15:30:26.952Z,7.31
2023-03-28T15:33:01.754Z,7.14
2023-03-28T15:35:40.185Z,6.89
2023-03-28T15:38:15.434Z,6.88
2023-03-28T15:40:51.280Z,6.91
2023-03-28T15:43:27.082Z,6.95
2023-03-28T15:45:56.933Z,6.75
2023-03-28T15:48:23.907Z,6.89
2023-03-28T15:50:53.278Z,6.95
2023-03-28T15:53:26.799Z,7.08
2023-03-28T15:55:53.406Z,7.09
2023-03-28T15:58:21.712Z,7.23
2023-03-28T16:00:53.318Z,7.16
2023-03-28T16:03:32.959Z,7.05
2023-03-28T16:06:10.246Z,7.00
2023-03-28T16:08:41.791Z,6.95
2023-03-28T16:11:16.803Z,7.08
2023-03-28T16:13:43.524Z,7.11
2023-03-28T16:16:18.833Z,7.11
2023-03-28T16:18:45.711Z,7.08
2023-03-28T16:21:12.438Z,7.03
2023-03-28T16:23:39.179Z,6.92
2023-03-28T16:26:07.004Z,6.85
2023-03-28T16:28:33.584Z,6.86
2023-03-28T16:31:00.567Z,7.03
2023-03-28T16:33:27.067Z,6.89
2023-03-28T16:35:54.270Z,6.82
2023-03-28T16:38:21.759Z,6.81
2023-03-28T16:40:48.724Z,6.84
2023-03-28T16:43:16.873Z,6.83
2023-03-28T16:45:48.366Z,6.85
2023-03-28T16:48:15.423Z,6.72
2023-03-28T16:50:41.895Z,6.76
2023-03-28T16:53:08.608Z,6.78
2023-03-28T16:55:35.309Z,6.79
2023-03-28T16:58:03.063Z,6.66
2023-03-28T17:00:29.599Z,6.57
2023-03-28T17:02:56.333Z,6.48
2023-03-28T17:05:22.838Z,6.50
2023-03-28T17:07:49.399Z,6.40
2023-03-28T17:10:16.298Z,6.34
2023-03-28T17:12:43.147Z,6.26
2023-03-28T17:15:10.122Z,6.13
2023-03-28T17:17:36.933Z,6.01
2023-03-28T17:20:03.828Z,6.04
2023-03-28T17:22:31.119Z,5.99
2023-03-28T17:24:57.610Z,6.03
2023-03-28T17:27:24.350Z,5.99
2023-03-28T17:29:51.914Z,5.87
2023-03-28T17:32:18.766Z,5.92
2023-03-28T17:34:46.349Z,5.88
2023-03-28T17:37:12.821Z,5.81
2023-03-28T17:39:39.780Z,5.74
2023-03-28T17:42:07.311Z,5.63
2023-03-28T17:44:33.813Z,5.54
2023-03-28T17:47:00.882Z,5.40
2023-03-28T17:49:27.516Z,5.30
2023-03-28T17:51:54.030Z,5.23
2023-03-28T17:54:20.464Z,5.21
2023-03-28T17:56:47.759Z,5.10
2023-03-28T17:59:14.313Z,4.97
2023-03-28T18:01:41.074Z,4.81
2023-03-28T18:04:07.908Z,4.70
2023-03-28T18:06:34.465Z,4.56
2023-03-28T18:09:01.039Z,4.33
2023-03-28T18:11:28.397Z,4.16
2023-03-28T18:13:57.209Z,4.06
2023-03-28T18:16:23.837Z,3.99
2023-03-28T18:18:50.590Z,3.88
2023-03-28T18:21:17.444Z,3.79
2023-03-28T18:23:43.863Z,3.74
2023-03-28T18:26:10.750Z,3.67
2023-03-28T18:28:37.497Z,3.61
2023-03-28T18:31:13.325Z,3.57
2023-03-28T18:33:41.052Z,3.37
2023-03-28T18:36:08.336Z,3.25
2023-03-28T18:38:37.051Z,3.11
2023-03-28T18:41:04.289Z,3.05
2023-03-28T18:43:31.234Z,3.05
2023-03-28T18:45:59.704Z,3.00
2023-03-28T18:48:29.692Z,2.89
2023-03-28T18:50:58.470Z,2.85
2023-03-28T18:53:27.762Z,2.83
2023-03-28T18:55:55.293Z,2.86
2023-03-28T18:58:26.313Z,2.84
2023-03-28T19:00:59.344Z,2.90
2023-03-28T19:03:28.381Z,2.86
2023-03-28T19:11:25.108Z,2.86
2023-03-28T19:13:52.282Z,2.91
2023-03-28T19:16:19.594Z,2.92
2023-03-28T19:18:49.474Z,2.93
2023-03-28T19:21:17.076Z,2.92
2023-03-28T19:23:44.003Z,2.88
2023-03-28T19:26:12.725Z,2.87
2023-03-28T19:28:39.650Z,2.83
2023-03-28T19:31:09.453Z,2.88
2023-03-28T19:33:37.317Z,2.91
2023-03-28T19:36:06.184Z,2.82
2023-03-28T19:38:35.083Z,2.81
2023-03-28T19:41:03.946Z,2.76
2023-03-28T19:43:31.232Z,2.75
2023-03-28T19:46:02.907Z,2.68
2023-03-28T19:48:30.080Z,2.66
2023-03-28T19:50:56.661Z,2.67
2023-03-28T19:53:23.181Z,2.68
2023-03-28T19:55:54.579Z,2.68
2023-03-28T19:58:21.124Z,2.73
2023-03-28T20:00:48.078Z,2.79
2023-03-28T20:03:14.888Z,2.76
2023-03-28T20:05:42.933Z,2.77
2023-03-28T20:08:09.405Z,2.82
2023-03-28T20:10:40.953Z,2.84
2023-03-28T20:13:07.814Z,2.87
2023-03-28T20:15:37.269Z,2.94
2023-03-28T20:18:04.829Z,3.01
2023-03-28T20:20:31.615Z,3.11
2023-03-28T20:22:59.790Z,3.10
2023-03-28T20:25:26.250Z,3.05
2023-03-28T20:27:52.688Z,3.03
2023-03-28T20:30:19.413Z,3.03
2023-03-28T20:32:53.862Z,3.06
2023-03-28T20:35:32.256Z,3.03
2023-03-28T20:38:00.991Z,2.98
2023-03-28T20:40:27.902Z,3.01
2023-03-28T20:42:55.003Z,3.01
2023-03-28T20:45:24.956Z,2.98
2023-03-28T20:47:56.371Z,3.01
2023-03-28T20:50:27.013Z,3.02
2023-03-28T20:52:53.813Z,2.97
2023-03-28T20:55:20.404Z,2.96
2023-03-28T20:57:47.952Z,2.97
2023-03-28T21:00:17.502Z,2.98
2023-03-28T21:02:46.329Z,2.95
2023-03-28T21:05:13.435Z,2.97
2023-03-28T21:07:41.279Z,3.03
2023-03-28T21:10:09.406Z,3.04
2023-03-28T21:12:36.340Z,3.12
2023-03-28T21:15:03.250Z,3.16
2023-03-28T21:17:30.730Z,3.13
2023-03-28T21:19:59.107Z,3.20
2023-03-28T21:22:25.836Z,3.28
2023-03-28T21:24:52.331Z,3.27
2023-03-28T21:27:18.843Z,3.22
2023-03-28T21:29:45.413Z,3.26
2023-03-28T21:32:12.008Z,3.20
2023-03-28T21:34:39.037Z,3.30
2023-03-28T21:37:05.973Z,3.17
2023-03-28T21:39:32.679Z,3.19
2023-03-28T21:42:00.073Z,3.20
2023-03-28T21:44:26.568Z,3.17
2023-03-28T21:46:53.145Z,3.14
2023-03-28T21:49:19.861Z,3.22
2023-03-28T21:51:46.341Z,3.21
2023-03-28T21:54:12.966Z,3.24
2023-03-28T21:56:39.545Z,3.27
2023-03-28T21:59:06.650Z,3.22
2023-03-28T22:01:33.696Z,3.20
2023-03-28T22:04:15.981Z,3.19
2023-03-28T22:07:01.048Z,3.24
2023-03-28T22:12:52.210Z,3.19
2023-03-28T22:15:42.020Z,3.27
2023-03-28T22:29:47.867Z,3.21
2023-03-28T22:32:29.237Z,3.17
2023-03-28T22:34:58.573Z,3.10
2023-03-28T22:37:35.831Z,3.09
2023-03-28T22:40:34.475Z,3.18
2023-03-28T22:43:08.359Z,3.20
2023-03-28T22:46:05.995Z,3.13
2023-03-28T22:48:44.909Z,3.13
2023-03-28T22:51:22.187Z,3.11
2023-03-28T22:54:08.691Z,3.15
2023-03-28T22:56:41.513Z,3.16
2023-03-28T22:59:13.857Z,3.21
2023-03-28T23:01:55.299Z,3.26
2023-03-28T23:04:32.233Z,3.27
2023-03-28T23:07:04.311Z,3.31
2023-03-28T23:09:31.155Z,3.31
2023-03-28T23:11:59.855Z,3.26
2023-03-28T23:14:27.441Z,3.31
2023-03-28T23:16:54.553Z,3.30
2023-03-28T23:19:26.945Z,3.29
2023-03-28T23:21:56.149Z,3.28
2023-03-28T23:24:30.850Z,3.36
2023-03-28T23:26:58.805Z,3.37
2023-03-28T23:29:28.265Z,3.41
2023-03-28T23:31:57.220Z,3.43
2023-03-28T23:34:40.476Z,3.46
2023-03-28T23:37:07.304Z,3.44
2023-03-28T23:39:33.919Z,3.43
2023-03-28T23:42:03.554Z,3.44
2023-03-28T23:44:30.811Z,3.43
2023-03-28T23:46:57.637Z,3.41
2023-03-28T23:49:24.453Z,3.44
2023-03-28T23:51:50.926Z,3.45
2023-03-28T23:54:18.739Z,3.43
2023-03-28T23:56:46.019Z,3.41
2023-03-28T23:59:13.052Z,3.40
